sensor_id;sensor_type;location;lat;lon;timestamp;pressure;altitude;pressure_sealevel;temperature;humidity
12468;BME280;57850;52.922;6.256;2023-11-19T00:00:25;61577.38;;;-141.68;100.00
12468;BME280;57850;52.922;6.256;2023-11-19T00:02:51;61577.38;;;-141.68;100.00
12468;BME280;57850;52.922;6.256;2023-11-19T00:05:18;61577.38;;;-141.68;100.00
12468;BME280;57850;52.922;6.256;2023-11-19T00:07:46;61577.38;;;-141.68;100.00
12468;BME280;57850;52.922;6.256;2023-11-19T00:10:14;61577.38;;;-141.68;100.00
12468;BME280;57850;52.922;6.256;2023-11-19T00:12:46;61577.38;;;-141.68;100.00
12468;BME280;57850;52.922;6.256;2023-11-19T00:15:13;61577.38;;;-141.68;100.00
12468;BME280;57850;52.922;6.256;2023-11-19T00:17:40;61577.38;;;-141.68;100.00
12468;BME280;57850;52.922;6.256;2023-11-19T00:20:10;61577.38;;;-141.68;100.00
12468;BME280;57850;52.922;6.256;2023-11-19T00:22:37;61577.38;;;-141.68;100.00
12468;BME280;57850;52.922;6.256;2023-11-19T00:25:05;61577.38;;;-141.68;100.00
12468;BME280;57850;52.922;6.256;2023-11-19T00:27:32;61577.38;;;-141.68;100.00
12468;BME280;57850;52.922;6.256;2023-11-19T00:29:58;61577.38;;;-141.68;100.00
12468;BME280;57850;52.922;6.256;2023-11-19T00:32:25;61577.38;;;-141.68;100.00
12468;BME280;57850;52.922;6.256;2023-11-19T00:34:52;61577.38;;;-141.68;100.00
12468;BME280;57850;52.922;6.256;2023-11-19T00:37:17;61577.38;;;-141.68;100.00
12468;BME280;57850;52.922;6.256;2023-11-19T00:39:44;61577.38;;;-141.68;100.00
12468;BME280;57850;52.922;6.256;2023-11-19T00:42:12;61577.38;;;-141.68;100.00
12468;BME280;57850;52.922;6.256;2023-11-19T00:44:39;61577.38;;;-141.68;100.00
12468;BME280;57850;52.922;6.256;2023-11-19T00:47:07;61577.38;;;-141.68;100.00
12468;BME280;57850;52.922;6.256;2023-11-19T00:49:33;61577.38;;;-141.68;100.00
12468;BME280;57850;52.922;6.256;2023-11-19T00:52:00;61577.38;;;-141.68;100.00
12468;BME280;57850;52.922;6.256;2023-11-19T00:54:27;61577.38;;;-141.68;100.00
12468;BME280;57850;52.922;6.256;2023-11-19T00:56:54;61577.38;;;-141.68;100.00
12468;BME280;57850;52.922;6.256;2023-11-19T00:59:22;55539.41;;;25.03;99.06
12468;BME280;57850;52.922;6.256;2023-11-19T01:01:49;94083.25;;;-1.11;73.23
12468;BME280;57850;52.922;6.256;2023-11-19T01:04:16;93350.69;;;-4.14;75.80
12468;BME280;57850;52.922;6.256;2023-11-19T01:06:43;92127.56;;;-4.12;81.50
12468;BME280;57850;52.922;6.256;2023-11-19T01:09:10;92141.50;;;-5.59;81.34
12468;BME280;57850;52.922;6.256;2023-11-19T01:11:36;83714.28;;;-5.58;100.00
12468;BME280;57850;52.922;6.256;2023-11-19T01:14:04;92908.25;;;-0.08;73.32
12468;BME280;57850;52.922;6.256;2023-11-19T01:16:32;93245.53;;;2.72;76.29
12468;BME280;57850;52.922;6.256;2023-11-19T01:18:59;85159.03;;;2.26;100.00
12468;BME280;57850;52.922;6.256;2023-11-19T01:21:29;92224.38;;;-3.15;75.91
12468;BME280;57850;52.922;6.256;2023-11-19T01:23:57;104495.44;;;-141.68;100.00
12468;BME280;57850;52.922;6.256;2023-11-19T01:26:23;94339.13;;;17.70;nan
12468;BME280;57850;52.922;6.256;2023-11-19T01:28:50;94860.28;;;17.85;nan
12468;BME280;57850;52.922;6.256;2023-11-19T01:31:18;95541.06;;;17.92;nan
12468;BME280;57850;52.922;6.256;2023-11-19T01:33:46;96113.38;;;17.54;nan
12468;BME280;57850;52.922;6.256;2023-11-19T01:36:13;96480.56;;;17.41;nan
12468;BME280;57850;52.922;6.256;2023-11-19T01:38:40;96713.25;;;17.42;nan
12468;BME280;57850;52.922;6.256;2023-11-19T01:41:07;96806.88;;;17.92;nan
12468;BME280;57850;52.922;6.256;2023-11-19T01:43:34;97078.50;;;17.57;nan
12468;BME280;57850;52.922;6.256;2023-11-19T01:46:01;97105.56;;;17.66;nan
12468;BME280;57850;52.922;6.256;2023-11-19T01:48:29;97173.84;;;17.82;nan
12468;BME280;57850;52.922;6.256;2023-11-19T01:50:57;97307.66;;;17.95;nan
12468;BME280;57850;52.922;6.256;2023-11-19T01:53:24;97358.56;;;17.74;nan
12468;BME280;57850;52.922;6.256;2023-11-19T01:55:51;97401.28;;;18.41;nan
12468;BME280;57850;52.922;6.256;2023-11-19T01:58:19;97619.13;;;17.93;nan
12468;BME280;57850;52.922;6.256;2023-11-19T02:00:45;97618.19;;;17.72;nan
12468;BME280;57850;52.922;6.256;2023-11-19T02:03:13;97718.28;;;17.88;nan
12468;BME280;57850;52.922;6.256;2023-11-19T02:05:40;97676.34;;;17.55;nan
12468;BME280;57850;52.922;6.256;2023-11-19T02:08:08;97680.25;;;17.82;nan
12468;BME280;57850;52.922;6.256;2023-11-19T02:10:35;97699.91;;;17.94;nan
12468;BME280;57850;52.922;6.256;2023-11-19T02:13:02;97797.91;;;17.60;nan
12468;BME280;57850;52.922;6.256;2023-11-19T02:15:30;97727.38;;;17.62;nan
12468;BME280;57850;52.922;6.256;2023-11-19T02:17:57;97733.44;;;17.86;nan
12468;BME280;57850;52.922;6.256;2023-11-19T02:20:23;97750.06;;;17.72;nan
12468;BME280;57850;52.922;6.256;2023-11-19T02:22:51;97809.78;;;17.87;nan
12468;BME280;57850;52.922;6.256;2023-11-19T02:25:26;97869.44;;;17.57;nan
12468;BME280;57850;52.922;6.256;2023-11-19T02:27:59;97876.84;;;17.62;nan
12468;BME280;57850;52.922;6.256;2023-11-19T02:30:26;97855.78;;;17.85;nan
12468;BME280;57850;52.922;6.256;2023-11-19T02:32:54;97926.09;;;18.00;nan
12468;BME280;57850;52.922;6.256;2023-11-19T02:35:22;98100.16;;;17.70;nan
12468;BME280;57850;52.922;6.256;2023-11-19T02:37:49;98069.19;;;17.47;nan
12468;BME280;57850;52.922;6.256;2023-11-19T02:40:15;98036.38;;;17.58;nan
12468;BME280;57850;52.922;6.256;2023-11-19T02:42:43;97964.44;;;17.88;nan
12468;BME280;57850;52.922;6.256;2023-11-19T02:45:11;98073.91;;;17.76;nan
12468;BME280;57850;52.922;6.256;2023-11-19T02:47:40;98072.47;;;17.57;nan
12468;BME280;57850;52.922;6.256;2023-11-19T02:50:08;98083.00;;;17.82;nan
12468;BME280;57850;52.922;6.256;2023-11-19T02:52:39;98133.94;;;17.82;nan
12468;BME280;57850;52.922;6.256;2023-11-19T02:55:06;98161.78;;;18.01;nan
12468;BME280;57850;52.922;6.256;2023-11-19T02:57:35;98154.22;;;17.65;nan
12468;BME280;57850;52.922;6.256;2023-11-19T03:00:02;98139.81;;;18.08;nan
12468;BME280;57850;52.922;6.256;2023-11-19T03:02:39;98192.75;;;18.15;nan
12468;BME280;57850;52.922;6.256;2023-11-19T03:05:10;98259.41;;;18.01;nan
12468;BME280;57850;52.922;6.256;2023-11-19T03:07:37;98402.53;;;17.79;nan
12468;BME280;57850;52.922;6.256;2023-11-19T03:10:04;23167.97;;;189.15;100.00
12468;BME280;57850;52.922;6.256;2023-11-19T03:12:31;97050.28;;;17.86;nan
12468;BME280;57850;52.922;6.256;2023-11-19T03:14:58;85251.75;;;23.58;100.00
12468;BME280;57850;52.922;6.256;2023-11-19T03:17:24;96614.06;;;14.87;nan
12468;BME280;57850;52.922;6.256;2023-11-19T03:19:53;61577.38;;;-141.68;100.00
12468;BME280;57850;52.922;6.256;2023-11-19T03:22:19;61577.38;;;-141.68;100.00
12468;BME280;57850;52.922;6.256;2023-11-19T03:24:46;-23196.97;;;-141.68;100.00
12468;BME280;57850;52.922;6.256;2023-11-19T03:27:13;61577.38;;;-141.68;100.00
12468;BME280;57850;52.922;6.256;2023-11-19T03:29:40;-23196.97;;;189.15;100.00
12468;BME280;57850;52.922;6.256;2023-11-19T03:32:06;104495.44;;;-141.68;100.00
12468;BME280;57850;52.922;6.256;2023-11-19T03:34:33;104495.44;;;-141.68;100.00
12468;BME280;57850;52.922;6.256;2023-11-19T03:37:01;63918.06;;;-59.09;100.00
12468;BME280;57850;52.922;6.256;2023-11-19T03:39:28;-19403.47;;;189.15;100.00
12468;BME280;57850;52.922;6.256;2023-11-19T03:41:55;-23196.97;;;189.15;100.00
12468;BME280;57850;52.922;6.256;2023-11-19T03:44:21;-19403.47;;;189.15;100.00
12468;BME280;57850;52.922;6.256;2023-11-19T03:46:48;90052.63;;;-100.39;92.67
12468;BME280;57850;52.922;6.256;2023-11-19T03:49:15;84829.59;;;23.58;100.00
12468;BME280;57850;52.922;6.256;2023-11-19T03:51:41;96214.34;;;17.86;nan
12468;BME280;57850;52.922;6.256;2023-11-19T03:54:10;97141.88;;;17.49;nan
12468;BME280;57850;52.922;6.256;2023-11-19T03:56:37;92415.94;;;17.49;96.42
12468;BME280;57850;52.922;6.256;2023-11-19T03:59:03;96617.56;;;17.54;nan
12468;BME280;57850;52.922;6.256;2023-11-19T04:01:30;97394.94;;;17.20;nan
12468;BME280;57850;52.922;6.256;2023-11-19T04:03:57;97634.19;;;17.02;nan
12468;BME280;57850;52.922;6.256;2023-11-19T04:06:25;97788.00;;;16.93;nan
12468;BME280;57850;52.922;6.256;2023-11-19T04:08:52;97971.34;;;17.89;nan
12468;BME280;57850;52.922;6.256;2023-11-19T04:11:20;98223.31;;;17.03;nan
12468;BME280;57850;52.922;6.256;2023-11-19T04:13:47;98224.34;;;17.18;nan
12468;BME280;57850;52.922;6.256;2023-11-19T04:16:14;98297.66;;;16.89;nan
12468;BME280;57850;52.922;6.256;2023-11-19T04:18:41;98342.97;;;16.67;nan
12468;BME280;57850;52.922;6.256;2023-11-19T04:21:07;98296.31;;;16.77;nan
12468;BME280;57850;52.922;6.256;2023-11-19T04:23:34;98303.69;;;16.47;nan
12468;BME280;57850;52.922;6.256;2023-11-19T04:26:02;98283.53;;;16.90;nan
12468;BME280;57850;52.922;6.256;2023-11-19T04:28:30;98302.88;;;17.06;nan
12468;BME280;57850;52.922;6.256;2023-11-19T04:30:57;98320.50;;;17.06;nan
12468;BME280;57850;52.922;6.256;2023-11-19T04:33:24;98427.00;;;16.78;nan
12468;BME280;57850;52.922;6.256;2023-11-19T04:35:50;98432.31;;;16.86;nan
12468;BME280;57850;52.922;6.256;2023-11-19T04:38:17;98488.06;;;16.99;nan
12468;BME280;57850;52.922;6.256;2023-11-19T04:40:43;98526.50;;;16.84;nan
12468;BME280;57850;52.922;6.256;2023-11-19T04:43:10;98583.06;;;16.80;nan
12468;BME280;57850;52.922;6.256;2023-11-19T04:45:39;98588.94;;;17.09;nan
12468;BME280;57850;52.922;6.256;2023-11-19T04:48:06;98680.34;;;17.26;nan
12468;BME280;57850;52.922;6.256;2023-11-19T04:50:34;98721.53;;;16.82;nan
12468;BME280;57850;52.922;6.256;2023-11-19T04:53:01;98670.34;;;16.94;nan
12468;BME280;57850;52.922;6.256;2023-11-19T04:55:28;98726.13;;;16.80;nan
12468;BME280;57850;52.922;6.256;2023-11-19T04:57:55;98740.66;;;17.11;nan
12468;BME280;57850;52.922;6.256;2023-11-19T05:00:22;98765.25;;;16.75;nan
12468;BME280;57850;52.922;6.256;2023-11-19T05:02:50;98768.03;;;17.01;nan
12468;BME280;57850;52.922;6.256;2023-11-19T05:05:16;98851.41;;;16.92;nan
12468;BME280;57850;52.922;6.256;2023-11-19T05:07:43;98853.09;;;16.93;nan
12468;BME280;57850;52.922;6.256;2023-11-19T05:10:10;98841.94;;;17.09;nan
12468;BME280;57850;52.922;6.256;2023-11-19T05:12:37;98903.06;;;16.76;nan
12468;BME280;57850;52.922;6.256;2023-11-19T05:15:05;98937.72;;;16.62;nan
12468;BME280;57850;52.922;6.256;2023-11-19T05:17:32;98963.06;;;16.91;nan
12468;BME280;57850;52.922;6.256;2023-11-19T05:20:00;98974.88;;;16.58;nan
12468;BME280;57850;52.922;6.256;2023-11-19T05:22:26;98981.72;;;17.07;nan
12468;BME280;57850;52.922;6.256;2023-11-19T05:24:53;99024.31;;;17.12;nan
12468;BME280;57850;52.922;6.256;2023-11-19T05:27:21;99072.72;;;16.83;nan
12468;BME280;57850;52.922;6.256;2023-11-19T05:29:49;99050.69;;;16.65;nan
12468;BME280;57850;52.922;6.256;2023-11-19T05:32:15;99092.69;;;17.04;nan
12468;BME280;57850;52.922;6.256;2023-11-19T05:34:42;99122.50;;;17.62;nan
12468;BME280;57850;52.922;6.256;2023-11-19T05:37:10;99251.06;;;16.92;nan
12468;BME280;57850;52.922;6.256;2023-11-19T05:39:36;99208.25;;;17.19;nan
12468;BME280;57850;52.922;6.256;2023-11-19T05:42:03;99229.72;;;17.04;nan
12468;BME280;57850;52.922;6.256;2023-11-19T05:44:30;99269.56;;;16.41;nan
12468;BME280;57850;52.922;6.256;2023-11-19T05:46:57;99215.97;;;16.82;nan
12468;BME280;57850;52.922;6.256;2023-11-19T05:49:23;99230.06;;;16.41;nan
12468;BME280;57850;52.922;6.256;2023-11-19T05:51:50;99232.59;;;16.73;nan
12468;BME280;57850;52.922;6.256;2023-11-19T05:54:20;99273.53;;;16.96;nan
12468;BME280;57850;52.922;6.256;2023-11-19T05:56:47;99321.47;;;16.39;nan
12468;BME280;57850;52.922;6.256;2023-11-19T05:59:15;99265.75;;;16.54;nan
12468;BME280;57850;52.922;6.256;2023-11-19T06:01:43;99299.22;;;16.43;nan
12468;BME280;57850;52.922;6.256;2023-11-19T06:04:10;99255.28;;;17.04;nan
12468;BME280;57850;52.922;6.256;2023-11-19T06:06:36;99344.81;;;16.64;nan
12468;BME280;57850;52.922;6.256;2023-11-19T06:09:04;99374.91;;;16.30;nan
12468;BME280;57850;52.922;6.256;2023-11-19T06:11:33;99310.50;;;16.54;nan
12468;BME280;57850;52.922;6.256;2023-11-19T06:14:01;99393.16;;;16.22;nan
12468;BME280;57850;52.922;6.256;2023-11-19T06:16:30;99367.88;;;16.72;nan
12468;BME280;57850;52.922;6.256;2023-11-19T06:18:57;99422.19;;;16.31;nan
12468;BME280;57850;52.922;6.256;2023-11-19T06:21:24;83171.63;;;-9.41;100.00
12468;BME280;57850;52.922;6.256;2023-11-19T06:23:51;66209.34;;;189.15;100.00
12468;BME280;57850;52.922;6.256;2023-11-19T06:26:18;98242.50;;;14.59;nan
12468;BME280;57850;52.922;6.256;2023-11-19T06:28:46;66209.34;;;189.15;100.00
12468;BME280;57850;52.922;6.256;2023-11-19T06:31:13;66209.34;;;23.58;100.00
12468;BME280;57850;52.922;6.256;2023-11-19T06:33:41;66209.34;;;23.58;100.00
12468;BME280;57850;52.922;6.256;2023-11-19T06:36:08;66209.34;;;23.58;100.00
12468;BME280;57850;52.922;6.256;2023-11-19T06:38:35;64209.63;;;23.58;100.00
12468;BME280;57850;52.922;6.256;2023-11-19T06:41:01;66547.16;;;189.15;100.00
12468;BME280;57850;52.922;6.256;2023-11-19T06:43:32;95847.22;;;0.24;93.13
12468;BME280;57850;52.922;6.256;2023-11-19T06:46:00;84946.00;;;0.20;93.81
12468;BME280;57850;52.922;6.256;2023-11-19T06:48:27;95532.91;;;1.13;92.90
12468;BME280;57850;52.922;6.256;2023-11-19T06:50:53;95532.91;;;1.13;92.90
12468;BME280;57850;52.922;6.256;2023-11-19T06:53:20;96271.25;;;4.36;82.09
12468;BME280;57850;52.922;6.256;2023-11-19T06:55:46;95675.59;;;1.23;92.92
12468;BME280;57850;52.922;6.256;2023-11-19T06:58:13;95369.97;;;-0.81;93.69
12468;BME280;57850;52.922;6.256;2023-11-19T07:00:40;95314.09;;;-0.49;93.70
12468;BME280;57850;52.922;6.256;2023-11-19T07:03:08;85204.13;;;-59.09;100.00
12468;BME280;57850;52.922;6.256;2023-11-19T07:05:35;85157.41;;;-59.09;100.00
12468;BME280;57850;52.922;6.256;2023-11-19T07:08:03;85299.94;;;-59.09;100.00
12468;BME280;57850;52.922;6.256;2023-11-19T07:10:30;85327.72;;;2.86;100.00
12468;BME280;57850;52.922;6.256;2023-11-19T07:12:57;85275.53;;;-100.39;100.00
12468;BME280;57850;52.922;6.256;2023-11-19T07:15:23;95704.44;;;-100.39;100.00
12468;BME280;57850;52.922;6.256;2023-11-19T07:17:50;85203.75;;;-59.09;100.00
12468;BME280;57850;52.922;6.256;2023-11-19T07:20:18;95622.56;;;1.36;81.76
12468;BME280;57850;52.922;6.256;2023-11-19T07:22:44;66475.91;;;-59.09;100.00
12468;BME280;57850;52.922;6.256;2023-11-19T07:25:12;97648.69;;;16.75;nan
12468;BME280;57850;52.922;6.256;2023-11-19T07:27:39;98065.28;;;12.88;nan
12468;BME280;57850;52.922;6.256;2023-11-19T07:30:06;97644.16;;;12.88;nan
12468;BME280;57850;52.922;6.256;2023-11-19T07:32:33;97563.56;;;11.11;nan
12468;BME280;57850;52.922;6.256;2023-11-19T07:35:00;96876.91;;;6.69;76.66
12468;BME280;57850;52.922;6.256;2023-11-19T07:37:28;85650.81;;;6.69;100.00
12468;BME280;57850;52.922;6.256;2023-11-19T07:39:54;96723.03;;;6.63;76.84
12468;BME280;57850;52.922;6.256;2023-11-19T07:42:21;96764.22;;;6.84;82.35
12468;BME280;57850;52.922;6.256;2023-11-19T07:44:49;96613.00;;;5.89;82.25
12468;BME280;57850;52.922;6.256;2023-11-19T07:47:15;96774.38;;;6.96;76.86
12468;BME280;57850;52.922;6.256;2023-11-19T07:49:42;96612.00;;;6.20;76.62
12468;BME280;57850;52.922;6.256;2023-11-19T07:52:09;96869.19;;;7.79;76.77
12468;BME280;57850;52.922;6.256;2023-11-19T07:54:37;96826.44;;;7.83;76.78
12468;BME280;57850;52.922;6.256;2023-11-19T07:57:03;96714.50;;;7.28;82.40
12468;BME280;57850;52.922;6.256;2023-11-19T07:59:30;96645.75;;;6.86;82.35
12468;BME280;57850;52.922;6.256;2023-11-19T08:01:57;96710.97;;;7.20;76.71
12468;BME280;57850;52.922;6.256;2023-11-19T08:04:23;96691.03;;;7.20;82.39
12468;BME280;57850;52.922;6.256;2023-11-19T08:06:50;96631.53;;;6.52;82.32
12468;BME280;57850;52.922;6.256;2023-11-19T08:09:17;96760.50;;;7.36;82.41
12468;BME280;57850;52.922;6.256;2023-11-19T08:11:45;96628.50;;;6.37;82.30
12468;BME280;57850;52.922;6.256;2023-11-19T08:14:11;96730.84;;;7.00;82.37
12468;BME280;57850;52.922;6.256;2023-11-19T08:16:39;96541.00;;;7.97;94.49
12468;BME280;57850;52.922;6.256;2023-11-19T08:19:05;96164.22;;;7.18;82.74
12468;BME280;57850;52.922;6.256;2023-11-19T08:21:33;96578.88;;;5.43;82.82
12468;BME280;57850;52.922;6.256;2023-11-19T08:24:00;96652.22;;;5.72;82.23
12468;BME280;57850;52.922;6.256;2023-11-19T08:26:27;95972.28;;;5.77;93.70
12468;BME280;57850;52.922;6.256;2023-11-19T08:28:54;96682.16;;;5.81;82.38
12468;BME280;57850;52.922;6.256;2023-11-19T08:31:24;96774.97;;;6.31;76.80
12468;BME280;57850;52.922;6.256;2023-11-19T08:33:51;96333.78;;;5.43;93.82
12468;BME280;57850;52.922;6.256;2023-11-19T08:36:17;96489.41;;;5.77;93.70
12468;BME280;57850;52.922;6.256;2023-11-19T08:38:44;96678.59;;;5.65;94.37
12468;BME280;57850;52.922;6.256;2023-11-19T08:41:11;96661.13;;;-80.39;94.40
12468;BME280;57850;52.922;6.256;2023-11-19T08:43:38;97592.97;;;7.91;100.00
12468;BME280;57850;52.922;6.256;2023-11-19T08:46:10;96618.03;;;7.59;93.75
12468;BME280;57850;52.922;6.256;2023-11-19T08:48:37;86691.19;;;12.59;100.00
12468;BME280;57850;52.922;6.256;2023-11-19T08:51:04;96334.09;;;6.73;82.82
12468;BME280;57850;52.922;6.256;2023-11-19T08:53:31;96383.78;;;7.42;94.41
12468;BME280;57850;52.922;6.256;2023-11-19T08:55:57;97247.75;;;7.59;100.00
12468;BME280;57850;52.922;6.256;2023-11-19T08:58:24;96272.75;;;7.18;93.71
12468;BME280;57850;52.922;6.256;2023-11-19T09:00:51;96202.53;;;6.94;93.69
12468;BME280;57850;52.922;6.256;2023-11-19T09:03:18;96252.31;;;7.50;93.75
12468;BME280;57850;52.922;6.256;2023-11-19T09:05:45;96274.78;;;-101.04;100.00
12468;BME280;57850;52.922;6.256;2023-11-19T09:08:12;96418.59;;;7.83;100.00
12468;BME280;57850;52.922;6.256;2023-11-19T09:10:38;96319.19;;;7.02;93.69
12468;BME280;57850;52.922;6.256;2023-11-19T09:13:05;86518.63;;;7.10;100.00
12468;BME280;57850;52.922;6.256;2023-11-19T09:15:32;97315.44;;;-80.39;100.00
12468;BME280;57850;52.922;6.256;2023-11-19T09:17:58;97210.53;;;7.02;100.00
12468;BME280;57850;52.922;6.256;2023-11-19T09:20:26;96610.22;;;8.05;100.00
12468;BME280;57850;52.922;6.256;2023-11-19T09:22:53;96524.69;;;7.18;94.40
12468;BME280;57850;52.922;6.256;2023-11-19T09:25:19;96543.88;;;7.38;93.73
12468;BME280;57850;52.922;6.256;2023-11-19T09:27:46;96916.22;;;9.52;94.03
12468;BME280;57850;52.922;6.256;2023-11-19T09:30:13;96635.91;;;7.18;93.71
12468;BME280;57850;52.922;6.256;2023-11-19T09:32:40;96701.03;;;7.50;94.44
12468;BME280;57850;52.922;6.256;2023-11-19T09:35:07;96723.97;;;7.73;93.77
12468;BME280;57850;52.922;6.256;2023-11-19T09:37:35;96669.44;;;7.26;93.72
12468;BME280;57850;52.922;6.256;2023-11-19T09:40:02;96772.41;;;8.03;94.50
12468;BME280;57850;52.922;6.256;2023-11-19T09:42:30;97124.44;;;9.52;94.03
12468;BME280;57850;52.922;6.256;2023-11-19T09:45:06;96156.19;;;7.22;95.09
12468;BME280;57850;52.922;6.256;2023-11-19T09:47:39;96270.50;;;7.97;93.81
12468;BME280;57850;52.922;6.256;2023-11-19T09:50:06;96591.53;;;9.60;94.03
12468;BME280;57850;52.922;6.256;2023-11-19T09:52:34;96158.72;;;7.18;93.71
12468;BME280;57850;52.922;6.256;2023-11-19T09:55:01;96269.00;;;7.74;93.78
12468;BME280;57850;52.922;6.256;2023-11-19T09:57:30;96282.50;;;7.95;94.49
12468;BME280;57850;52.922;6.256;2023-11-19T09:59:58;86289.59;;;-38.47;100.00
12468;BME280;57850;52.922;6.256;2023-11-19T10:02:25;86289.59;;;12.27;100.00
12468;BME280;57850;52.922;6.256;2023-11-19T10:04:54;97059.00;;;7.59;100.00
12468;BME280;57850;52.922;6.256;2023-11-19T10:07:21;96165.78;;;7.10;95.07
12468;BME280;57850;52.922;6.256;2023-11-19T10:09:49;96244.56;;;7.58;93.75
12468;BME280;57850;52.922;6.256;2023-11-19T10:12:16;96184.09;;;7.34;95.10
12468;BME280;57850;52.922;6.256;2023-11-19T10:14:43;96621.88;;;7.10;94.37
12468;BME280;57850;52.922;6.256;2023-11-19T10:17:10;96957.88;;;9.68;100.00
12468;BME280;57850;52.922;6.256;2023-11-19T10:19:39;97019.06;;;11.77;72.83
12468;BME280;57850;52.922;6.256;2023-11-19T10:22:06;97113.63;;;10.12;76.99
12468;BME280;57850;52.922;6.256;2023-11-19T10:24:34;97256.63;;;11.69;74.25
12468;BME280;57850;52.922;6.256;2023-11-19T10:27:06;97056.03;;;9.12;82.59
12468;BME280;57850;52.922;6.256;2023-11-19T10:29:36;96990.69;;;10.36;77.01
12468;BME280;57850;52.922;6.256;2023-11-19T10:32:03;96808.25;;;9.08;82.59
12468;BME280;57850;52.922;6.256;2023-11-19T10:34:30;96754.09;;;8.61;82.67
12468;BME280;57850;52.922;6.256;2023-11-19T10:36:57;96870.22;;;8.98;82.58
12468;BME280;57850;52.922;6.256;2023-11-19T10:39:23;96784.00;;;7.97;93.81
12468;BME280;57850;52.922;6.256;2023-11-19T10:41:51;96715.06;;;8.31;82.65
12468;BME280;57850;52.922;6.256;2023-11-19T10:44:40;96701.56;;;8.99;83.06
12468;BME280;57850;52.922;6.256;2023-11-19T10:47:08;97237.41;;;7.26;100.00
12468;BME280;57850;52.922;6.256;2023-11-19T10:49:36;96679.25;;;9.11;82.59
12468;BME280;57850;52.922;6.256;2023-11-19T10:52:05;96740.03;;;9.85;94.06
12468;BME280;57850;52.922;6.256;2023-11-19T10:54:34;96314.53;;;7.50;93.75
12468;BME280;57850;52.922;6.256;2023-11-19T10:57:01;96568.38;;;9.44;82.63
12468;BME280;57850;52.922;6.256;2023-11-19T10:59:30;86694.28;;;-59.73;100.00
12468;BME280;57850;52.922;6.256;2023-11-19T11:02:00;91737.50;;;8.54;83.01
12468;BME280;57850;52.922;6.256;2023-11-19T11:04:33;86672.19;;;7.59;95.15
12468;BME280;57850;52.922;6.256;2023-11-19T11:07:07;95878.84;;;10.22;82.71
12468;BME280;57850;52.922;6.256;2023-11-19T11:09:35;96649.00;;;10.31;82.71
12468;BME280;57850;52.922;6.256;2023-11-19T11:12:04;96578.63;;;9.83;94.06
12468;BME280;57850;52.922;6.256;2023-11-19T11:14:34;94453.44;;;8.80;83.04
12468;BME280;57850;52.922;6.256;2023-11-19T11:17:04;96668.47;;;9.92;94.07
12468;BME280;57850;52.922;6.256;2023-11-19T11:19:33;96676.16;;;9.67;82.99
12468;BME280;57850;52.922;6.256;2023-11-19T11:22:00;96512.84;;;8.31;82.51
12468;BME280;57850;52.922;6.256;2023-11-19T11:24:54;96802.28;;;9.10;82.72
12468;BME280;57850;52.922;6.256;2023-11-19T11:27:51;86444.13;;;12.92;100.00
12468;BME280;57850;52.922;6.256;2023-11-19T11:30:29;96377.28;;;7.38;93.73
12468;BME280;57850;52.922;6.256;2023-11-19T11:33:09;86352.81;;;12.27;100.00
12468;BME280;57850;52.922;6.256;2023-11-19T11:35:50;86480.09;;;13.16;100.00
12468;BME280;57850;52.922;6.256;2023-11-19T11:38:21;96327.56;;;7.59;95.13
12468;BME280;57850;52.922;6.256;2023-11-19T11:41:15;96303.56;;;7.57;93.75
12468;BME280;57850;52.922;6.256;2023-11-19T11:43:45;96311.53;;;6.94;95.07
12468;BME280;57850;52.922;6.256;2023-11-19T11:49:27;96286.06;;;7.59;94.43
12468;BME280;57850;52.922;6.256;2023-11-19T11:51:59;96212.56;;;7.18;94.40
12468;BME280;57850;52.922;6.256;2023-11-19T11:54:26;96306.81;;;7.59;94.43
12468;BME280;57850;52.922;6.256;2023-11-19T11:57:01;96244.31;;;7.18;93.72
12468;BME280;57850;52.922;6.256;2023-11-19T11:59:36;86426.63;;;13.08;100.00
12468;BME280;57850;52.922;6.256;2023-11-19T12:02:03;97065.31;;;12.92;100.00
12468;BME280;57850;52.922;6.256;2023-11-19T12:04:31;86351.78;;;12.27;100.00
12468;BME280;57850;52.922;6.256;2023-11-19T12:07:05;86445.72;;;-38.59;100.00
12468;BME280;57850;52.922;6.256;2023-11-19T12:09:32;97148.00;;;12.92;100.00
12468;BME280;57850;52.922;6.256;2023-11-19T12:12:18;97299.81;;;7.91;100.00
12468;BME280;57850;52.922;6.256;2023-11-19T12:15:05;96373.09;;;6.94;94.37
12468;BME280;57850;52.922;6.256;2023-11-19T12:17:43;96373.09;;;6.94;95.07
12468;BME280;57850;52.922;6.256;2023-11-19T12:20:16;97373.56;;;7.59;100.00
12468;BME280;57850;52.922;6.256;2023-11-19T12:22:44;86696.25;;;7.67;100.00
12468;BME280;57850;52.922;6.256;2023-11-19T12:25:12;86738.00;;;12.92;100.00
12468;BME280;57850;52.922;6.256;2023-11-19T12:27:40;86696.25;;;12.92;100.00
12468;BME280;57850;52.922;6.256;2023-11-19T12:30:08;86551.94;;;13.08;100.00
12468;BME280;57850;52.922;6.256;2023-11-19T12:32:39;96440.84;;;8.03;100.00
12468;BME280;57850;52.922;6.256;2023-11-19T12:35:07;96716.31;;;9.66;82.65
12468;BME280;57850;52.922;6.256;2023-11-19T12:37:40;96624.47;;;9.29;82.61
12468;BME280;57850;52.922;6.256;2023-11-19T12:40:12;96409.38;;;7.71;93.77
12468;BME280;57850;52.922;6.256;2023-11-19T12:42:39;96872.56;;;9.02;94.11
12468;BME280;57850;52.922;6.256;2023-11-19T12:45:07;96828.84;;;9.33;82.75
12468;BME280;57850;52.922;6.256;2023-11-19T12:47:34;96903.91;;;9.44;82.63
12468;BME280;57850;52.922;6.256;2023-11-19T12:50:01;96999.13;;;8.63;94.07
12468;BME280;57850;52.922;6.256;2023-11-19T12:52:27;96993.97;;;9.82;82.67
12468;BME280;57850;52.922;6.256;2023-11-19T12:54:55;96981.66;;;9.44;82.63
12468;BME280;57850;52.922;6.256;2023-11-19T12:57:35;97041.16;;;9.68;94.03
12468;BME280;57850;52.922;6.256;2023-11-19T13:00:03;96997.22;;;9.93;94.40
12468;BME280;57850;52.922;6.256;2023-11-19T13:02:44;96539.34;;;7.10;94.38
12468;BME280;57850;52.922;6.256;2023-11-19T13:05:28;96828.22;;;9.20;83.08
12468;BME280;57850;52.922;6.256;2023-11-19T13:08:04;97037.78;;;9.12;83.07
12468;BME280;57850;52.922;6.256;2023-11-19T13:10:33;96761.59;;;9.22;83.08
12468;BME280;57850;52.922;6.256;2023-11-19T13:13:04;96912.72;;;9.12;94.13